Latest Coastal Weather Observations for Merimbula

IDN60701

Issued at 9:51 am EDT Monday 23 October 2017 (issued every 10 minutes, with the page automatically refreshed every 10 minutes)

About coastal observations | Map of coastal stations | Coastal observations for NSW | Marine services | Other Formats
Station Details ID: 069147 Name: MERIMBULA AIRPORT AWS Lat: -36.91 Lon: 149.90 Height: 1.5 m
Data from the previous 72 hours. | See also: Recent months at Merimbula
Date/Time
EDT
Temp
°C
Wind Pressure Rain since
9am
mm
Weather Cloud Vis
km
Sea
Height
m
Swell
Dir  Spd
kts
Gust
kts
hPa Trend Height
m
Period
s
Dir
23/09:30am 16.0 E 7 10 1018.1 - 0.0 - - 10 - - - -
23/09:00am 15.8 E 1 7 1017.8 - 0.2 - - 10 - - - -
23/08:30am 14.3 CALM 0 0 1017.7 - 0.2 - - 10 - - - -
23/08:00am 11.2 CALM 0 0 1017.9 - 0.2 - - 10 - - - -
23/07:30am 9.1 CALM 0 0 1017.7 - 0.2 - - 10 - - - -
23/07:00am 7.6 CALM 0 0 1017.5 - 0.2 - - 10 - - - -
23/06:30am 6.3 CALM 0 0 1017.2 - 0.2 - - 10 - - - -
23/06:00am 5.6 CALM 0 0 1016.9 - 0.2 - - 10 - - - -
23/05:30am 5.8 CALM 0 0 1016.6 - 0.2 - - 10 - - - -
23/05:00am 6.0 CALM 0 0 1016.4 - 0.2 - - 10 - - - -
23/04:30am 6.5 CALM 0 0 1016.4 - 0.2 - - 10 - - - -
23/04:00am 6.2 CALM 0 0 1016.5 - 0.2 - - 10 - - - -
23/03:30am 6.1 CALM 0 0 1016.4 - 0.2 - - 10 - - - -
23/03:00am 6.7 CALM 0 0 1016.5 - 0.2 - - 10 - - - -
23/02:30am 6.8 CALM 0 0 1016.6 - 0.2 - - 10 - - - -
23/02:00am 7.4 CALM 0 0 1016.6 - 0.2 - - 10 - - - -
23/01:30am 7.4 CALM 0 0 1016.8 - 0.0 - - 10 - - - -
23/01:00am 8.1 CALM 0 0 1017.1 - 0.0 - - 10 - - - -
23/12:30am 7.9 WNW 1 4 1017.3 - 0.0 - - 10 - - - -
23/12:00am 9.3 NW 2 5 1017.3 - 0.0 - - 10 - - - -
 
Date/Time
EDT
Temp
°C
Wind Pressure Rain since
9am
mm
Weather Cloud Vis
km
Sea
Height
m
Swell
Dir  Spd
kts
Gust
kts
hPa Trend Height
m
Period
s
Dir
22/11:30pm 10.3 NW 3 5 1017.3 - 0.0 - - 10 - - - -
22/11:00pm 10.1 WNW 1 7 1017.2 - 0.0 - - 10 - - - -
22/10:30pm 10.9 NW 1 6 1017.0 - 0.0 - - 10 - - - -
22/10:00pm 10.2 CALM 0 0 1016.9 - 0.0 - - 10 - - - -
22/09:30pm 10.7 CALM 0 0 1016.7 - 0.0 - - 10 - - - -
22/09:00pm 11.9 CALM 0 0 1016.4 - 0.0 - - 10 - - - -
22/08:30pm 12.8 S 2 5 1015.9 - 0.0 - - 10 - - - -
22/08:00pm 13.9 SSE 5 6 1015.3 - 0.0 - - 10 - - - -
22/07:30pm 15.3 SSW 6 9 1015.0 - 0.0 - - 10 - - - -
22/07:00pm 16.3 S 6 8 1014.6 - 0.0 - - 10 - - - -
22/06:30pm 17.5 SW 7 10 1014.1 - 0.0 - Partly cloudy 10 - - - -
22/06:00pm 16.6 SW 9 14 1013.9 - 0.0 - Mostly cloudy 10 - - - -
22/05:30pm 15.9 SSW 7 11 1013.9 - 0.0 - Partly cloudy 10 - - - -
22/05:00pm 17.8 SSW 9 15 1013.5 - 0.0 - Partly cloudy 10 - - - -
22/04:30pm 19.3 SW 9 17 1013.2 - 0.0 - Partly cloudy 10 - - - -
22/04:00pm 19.0 S 3 15 1013.0 - 0.0 - Partly cloudy 10 - - - -
22/03:30pm 20.3 SW 7 12 1012.8 - 0.0 - Partly cloudy 10 - - - -
22/03:00pm 21.6 SW 8 15 1012.9 - 0.0 - Cloudy 10 - - - -
22/02:30pm 19.7 SW 8 11 1013.3 - 0.0 - Partly cloudy 10 - - - -
22/02:00pm 19.1 SSW 9 15 1013.5 - 0.0 - Partly cloudy 10 - - - -
22/01:30pm 20.3 WSW 7 13 1013.7 - 0.0 - Partly cloudy 10 - - - -
22/01:00pm 18.8 SSW 9 15 1014.0 - 0.0 - Partly cloudy 10 - - - -
22/12:30pm 18.6 S 7 11 1014.2 - 0.0 - Partly cloudy 10 - - - -
22/12:00pm 18.2 SW 5 8 1014.4 - 0.0 - Mostly cloudy 10 - - - -
22/11:30am 18.3 SSW 5 10 1014.6 - 0.0 - Partly cloudy 10 - - - -
22/11:00am 17.6 W 7 13 1014.9 - 0.0 - Partly cloudy 10 - - - -
22/10:30am 17.8 WNW 9 14 1015.2 - 0.0 - - 10 - - - -
22/10:00am 16.8 WSW 6 11 1015.4 - 0.0 - Partly cloudy 10 - - - -
22/09:30am 15.5 WSW 5 8 1015.8 - 0.0 - Cloudy 10 - - - -
22/09:00am 15.1 SSE 5 7 1015.7 - 0.0 - Mostly clear 10 - - - -
22/08:30am 13.7 SSW 2 5 1015.7 - 0.0 - Partly cloudy 10 - - - -
22/08:00am 13.3 SSW 4 5 1015.8 - 0.0 - Partly cloudy 10 - - - -
22/07:30am 11.8 NW 5 7 1015.4 - 0.0 - Partly cloudy 10 - - - -
22/07:00am 9.8 N 4 6 1015.5 - 0.0 - Partly cloudy 10 - - - -
22/06:30am 9.5 CALM 0 0 1015.6 - 0.0 - Cloudy 10 - - - -
22/06:00am 9.9 NW 4 8 1015.4 - 0.0 - Partly cloudy 10 - - - -
22/05:30am 8.5 CALM 0 0 1015.5 - 0.0 - Partly cloudy 10 - - - -
22/05:00am 8.3 CALM 0 0 1015.7 - 0.0 - - 10 - - - -
22/04:30am 9.5 SW 3 5 1015.7 - 0.0 - - 10 - - - -
22/04:00am 10.2 CALM 0 0 1015.7 - 0.0 - - 10 - - - -
22/03:30am 11.2 CALM 0 0 1015.9 - 0.0 - Partly cloudy 10 - - - -
22/03:00am 11.3 SSW 5 7 1016.2 - 0.0 - Cloudy 10 - - - -
22/02:30am 11.1 SSW 4 5 1016.3 - 0.0 - Partly cloudy 10 - - - -
22/02:00am 11.3 SW 4 5 1016.5 - 0.0 - Partly cloudy 10 - - - -
22/01:30am 12.1 SSW 3 4 1016.9 - 0.0 - Partly cloudy 10 - - - -
22/01:00am 12.2 CALM 0 0 1017.4 - 0.0 - Cloudy 10 - - - -
22/12:30am 12.7 CALM 0 0 1017.8 - 0.0 - Cloudy 10 - - - -
22/12:00am 13.5 CALM 0 0 1018.1 - 0.0 - Cloudy 10 - - - -
 
Date/Time
EDT
Temp
°C
Wind Pressure Rain since
9am
mm
Weather Cloud Vis
km
Sea
Height
m
Swell
Dir  Spd
kts
Gust
kts
hPa Trend Height
m
Period
s
Dir
21/11:30pm 13.1 CALM 0 0 1018.4 - 0.0 - Cloudy 10 - - - -
21/11:00pm 13.4 CALM 0 0 1018.6 - 0.0 - Cloudy 10 - - - -
21/10:30pm 14.1 W 3 5 1018.7 - 0.0 - Cloudy 10 - - - -
21/10:00pm 14.3 W 6 8 1018.9 - 0.0 - Cloudy 10 - - - -
21/09:30pm 14.2 W 5 6 1019.0 - 0.0 - Partly cloudy 10 - - - -
21/09:00pm 14.5 WNW 4 6 1019.0 - 0.0 - Cloudy 10 - - - -
21/08:30pm 14.5 WNW 6 8 1018.9 - 0.0 - Cloudy 10 - - - -
21/08:00pm 14.5 NW 5 7 1018.6 - 0.0 - Partly cloudy 10 - - - -
21/07:30pm 14.7 NNW 5 7 1018.5 - 0.0 - Cloudy 10 - - - -
21/07:00pm 15.0 CALM 0 0 1018.3 - 0.0 - Cloudy 10 - - - -
21/06:30pm 15.4 NE 3 6 1018.2 - 0.0 - Cloudy 10 - - - -
21/06:00pm 15.9 E 5 7 1018.3 - 0.0 - Cloudy 10 - - - -
21/05:30pm 15.7 ESE 7 10 1018.4 - 0.0 - - 10 - - - -
21/05:00pm 15.4 ESE 7 11 1018.5 - 0.0 - - 10 - - - -
21/04:30pm 16.2 E 7 11 1018.7 - 0.0 - - 10 - - - -
21/04:00pm 16.0 E 8 13 1019.0 - 0.0 - - 10 - - - -
21/03:30pm 17.1 E 9 13 1019.3 - 0.0 - - 10 - - - -
21/03:00pm 16.4 E 8 13 1019.5 - 0.0 - - 10 - - - -
21/02:30pm 16.9 E 9 13 1019.8 - 0.0 - - 10 - - - -
21/02:00pm 17.4 ENE 9 13 1020.1 - 0.0 - - 10 - - - -
21/01:30pm 17.3 ENE 9 14 1020.5 - 0.0 - - 10 - - - -
21/01:00pm 17.1 ENE 10 14 1020.7 - 0.0 - - 10 - - - -
21/12:30pm 17.2 E 8 13 1021.0 - 0.0 - - 10 - - - -
21/12:00pm 17.4 E 9 13 1021.6 - 0.0 - Mostly clear 10 - - - -
21/11:30am 17.6 SE 7 11 1022.1 - 0.0 - - 10 - - - -
21/11:00am 16.6 SSW 7 11 1022.6 - 0.0 - Partly cloudy 10 - - - -
21/10:30am 15.8 SW 5 9 1022.9 - 0.0 - Partly cloudy 10 - - - -
21/10:00am 14.7 SW 7 13 1023.4 - 0.0 - Partly cloudy 10 - - - -
21/09:30am 14.0 WSW 7 10 1023.8 - 0.0 - Cloudy 10 - - - -
21/09:00am 13.1 W 5 8 1024.0 - 0.0 - Cloudy 10 - - - -
21/08:30am 11.9 WNW 7 9 1023.9 - 0.0 - Cloudy 10 - - - -
21/08:00am 10.6 W 9 15 1024.1 - 0.0 - Cloudy 10 - - - -
21/07:30am 6.9 WSW 3 4 1024.2 - 0.0 - Partly cloudy 10 - - - -
21/07:00am 7.1 CALM 0 0 1024.2 - 0.0 - Partly cloudy 10 - - - -
21/06:30am 5.9 CALM 0 0 1024.1 - 0.0 - Partly cloudy 10 - - - -
21/06:00am 6.1 CALM 0 0 1023.9 - 0.0 - Cloudy 10 - - - -
21/05:30am 5.7 CALM 0 0 1023.7 - 0.0 - - 10 - - - -
21/05:00am 6.7 CALM 0 0 1023.8 - 0.0 - Partly cloudy 10 - - - -
21/04:30am 7.4 CALM 0 0 1023.9 - 0.0 - Cloudy 10 - - - -
21/04:00am 6.6 CALM 0 0 1024.2 - 0.0 - Partly cloudy 10 - - - -
21/03:30am 6.5 CALM 0 0 1024.4 - 0.0 - Partly cloudy 10 - - - -
21/03:00am 7.0 CALM 0 0 1024.7 - 0.0 - Mostly cloudy 10 - - - -
21/02:30am 6.5 CALM 0 0 1024.9 - 0.0 - Partly cloudy 10 - - - -
21/02:00am 7.6 W 1 4 1025.4 - 0.0 - Partly cloudy 10 - - - -
21/01:30am 8.7 NNW 5 7 1025.7 - 0.0 - Partly cloudy 10 - - - -
21/01:00am 7.9 CALM 0 0 1026.0 - 0.0 - Partly cloudy 10 - - - -
21/12:30am 9.2 SW 4 5 1026.1 - 0.0 - Partly cloudy 10 - - - -
21/12:00am 10.1 SSW 5 6 1026.3 - 0.0 - Partly cloudy 10 - - - -
 
Date/Time
EDT
Temp
°C
Wind Pressure Rain since
9am
mm
Weather Cloud Vis
km
Sea
Height
m
Swell
Dir  Spd
kts
Gust
kts
hPa Trend Height
m
Period
s
Dir
20/11:30pm 10.5 SSW 5 7 1026.4 - 0.0 - - 10 - - - -
20/11:00pm 11.5 SW 5 8 1026.2 - 0.0 - - 10 - - - -
20/10:30pm 11.6 SSW 5 8 1026.3 - 0.0 - - 10 - - - -
20/10:00pm 12.2 S 6 8 1026.3 - 0.0 - Partly cloudy 10 - - - -
20/09:30pm 12.0 S 6 7 1026.2 - 0.0 - - 10 - - - -
20/09:00pm 12.7 SSW 6 8 1026.0 - 0.0 - - 10 - - - -
20/08:30pm 13.6 SSW 9 16 1025.6 - 0.0 - - 10 - - - -
20/08:00pm 14.1 S 8 12 1025.1 - 0.0 - - 10 - - - -
20/07:30pm 14.8 SSW 9 14 1024.6 - 0.0 - - 10 - - - -
20/07:00pm 16.0 S 10 17 1024.0 - 0.0 - - 10 - - - -
20/06:30pm 17.2 SSW 11 17 1023.4 - 0.0 - - 10 - - - -
20/06:00pm 18.0 S 13 19 1022.9 - 0.0 - - 10 - - - -
20/05:30pm 18.8 SSW 14 21 1022.2 - 0.0 - - 10 - - - -
20/05:00pm 19.9 SW 9 16 1022.0 - 0.0 - - 10 - - - -
20/04:30pm 19.5 SSW 13 21 1021.9 - 0.0 - - 10 - - - -
20/04:00pm 19.8 S 11 16 1021.8 - 0.0 - Partly cloudy 10 - - - -
20/03:30pm 19.7 SW 11 18 1022.0 - 0.0 - Partly cloudy 10 - - - -
20/03:00pm 19.9 SSW 11 18 1022.0 - 0.0 - Cloudy 10 - - - -
20/02:30pm 18.5 WSW 10 16 1022.1 - 0.0 - Partly cloudy 10 - - - -
20/02:00pm 18.0 SSW 11 18 1022.5 - 0.0 - Partly cloudy 10 - - - -
20/01:30pm 18.7 SW 10 16 1022.3 - 0.0 - Cloudy 10 - - - -
20/01:00pm 17.2 SW 11 17 1022.6 - 0.0 - Partly cloudy 10 - - - -
20/12:30pm 16.9 SW 11 19 1022.8 - 0.0 - Partly cloudy 10 - - - -
20/12:00pm 17.1 SSW 14 20 1022.8 - 0.0 - Cloudy 10 - - - -
20/11:30am 17.6 SSW 11 18 1022.6 - 0.0 - Partly cloudy 10 - - - -
20/11:00am 17.6 SW 9 15 1022.6 - 0.0 - Cloudy 10 - - - -
20/10:30am 16.5 SW 11 17 1022.7 - 0.0 - Cloudy 10 - - - -
20/10:00am 15.7 SSW 11 16 1022.6 - 0.0 - Cloudy 10 - - - -

Other Formats:

Comma delimited format used in spreadsheet applications
http://www.bom.gov.au/fwo/IDN60701/IDN60701.95929.axf

JavaScript Object Notation format (JSON) in row-major order
http://www.bom.gov.au/fwo/IDN60701/IDN60701.95929.json